sensor_id;sensor_type;location;lat;lon;timestamp;temperature;humidity
77803;DHT22;66993;48.256;16.422;2023-07-30T00:00:16;23.5;60.0
77803;DHT22;66993;48.256;16.422;2023-07-30T00:05:16;23.5;60.0
77803;DHT22;66993;48.256;16.422;2023-07-30T00:10:16;23.6;60.0
77803;DHT22;66993;48.256;16.422;2023-07-30T00:15:16;23.5;60.0
77803;DHT22;66993;48.256;16.422;2023-07-30T00:20:16;23.6;60.0
77803;DHT22;66993;48.256;16.422;2023-07-30T00:25:16;23.5;60.0
77803;DHT22;66993;48.256;16.422;2023-07-30T00:30:16;23.6;60.0
77803;DHT22;66993;48.256;16.422;2023-07-30T00:35:17;23.4;60.0
77803;DHT22;66993;48.256;16.422;2023-07-30T00:40:17;23.5;60.0
77803;DHT22;66993;48.256;16.422;2023-07-30T00:45:16;23.5;60.0
77803;DHT22;66993;48.256;16.422;2023-07-30T00:50:16;23.5;60.0
77803;DHT22;66993;48.256;16.422;2023-07-30T00:55:16;23.4;60.0
77803;DHT22;66993;48.256;16.422;2023-07-30T01:00:16;23.3;60.0
77803;DHT22;66993;48.256;16.422;2023-07-30T01:05:16;23.3;60.0
77803;DHT22;66993;48.256;16.422;2023-07-30T01:10:16;23.3;60.0
77803;DHT22;66993;48.256;16.422;2023-07-30T01:15:16;23.2;60.0
77803;DHT22;66993;48.256;16.422;2023-07-30T01:20:16;23.2;60.0
77803;DHT22;66993;48.256;16.422;2023-07-30T01:25:17;23.1;61.0
77803;DHT22;66993;48.256;16.422;2023-07-30T01:30:17;23.1;61.0
77803;DHT22;66993;48.256;16.422;2023-07-30T01:35:16;23.1;61.0
77803;DHT22;66993;48.256;16.422;2023-07-30T01:40:16;23.0;61.0
77803;DHT22;66993;48.256;16.422;2023-07-30T01:45:16;23.1;61.0
77803;DHT22;66993;48.256;16.422;2023-07-30T01:50:16;23.0;61.0
77803;DHT22;66993;48.256;16.422;2023-07-30T01:55:16;23.0;62.0
77803;DHT22;66993;48.256;16.422;2023-07-30T02:00:16;23.0;63.0
77803;DHT22;66993;48.256;16.422;2023-07-30T02:05:16;22.9;63.0
77803;DHT22;66993;48.256;16.422;2023-07-30T02:10:16;22.9;63.0
77803;DHT22;66993;48.256;16.422;2023-07-30T02:15:16;22.8;63.0
77803;DHT22;66993;48.256;16.422;2023-07-30T02:20:16;22.7;63.0
77803;DHT22;66993;48.256;16.422;2023-07-30T02:25:16;22.7;63.0
77803;DHT22;66993;48.256;16.422;2023-07-30T02:30:16;22.8;63.0
77803;DHT22;66993;48.256;16.422;2023-07-30T02:35:16;22.8;63.0
77803;DHT22;66993;48.256;16.422;2023-07-30T02:40:16;22.8;63.0
77803;DHT22;66993;48.256;16.422;2023-07-30T02:45:16;22.8;63.0
77803;DHT22;66993;48.256;16.422;2023-07-30T02:50:16;22.8;63.0
77803;DHT22;66993;48.256;16.422;2023-07-30T02:55:16;22.8;63.0
77803;DHT22;66993;48.256;16.422;2023-07-30T03:00:17;22.8;63.0
77803;DHT22;66993;48.256;16.422;2023-07-30T03:05:16;22.7;63.0
77803;DHT22;66993;48.256;16.422;2023-07-30T03:10:16;22.6;63.0
77803;DHT22;66993;48.256;16.422;2023-07-30T03:15:16;22.8;63.0
77803;DHT22;66993;48.256;16.422;2023-07-30T03:20:16;22.6;63.0
77803;DHT22;66993;48.256;16.422;2023-07-30T03:25:16;22.5;63.0
77803;DHT22;66993;48.256;16.422;2023-07-30T03:30:16;22.6;64.0
77803;DHT22;66993;48.256;16.422;2023-07-30T03:35:16;22.5;64.0
77803;DHT22;66993;48.256;16.422;2023-07-30T03:40:16;22.6;64.0
77803;DHT22;66993;48.256;16.422;2023-07-30T03:45:16;22.5;64.0
77803;DHT22;66993;48.256;16.422;2023-07-30T03:50:16;22.6;64.0
77803;DHT22;66993;48.256;16.422;2023-07-30T03:55:16;22.6;64.0
77803;DHT22;66993;48.256;16.422;2023-07-30T04:00:16;22.6;65.0
77803;DHT22;66993;48.256;16.422;2023-07-30T04:05:16;22.5;64.0
77803;DHT22;66993;48.256;16.422;2023-07-30T04:10:16;22.6;65.0
77803;DHT22;66993;48.256;16.422;2023-07-30T04:15:16;22.7;65.0
77803;DHT22;66993;48.256;16.422;2023-07-30T04:20:16;22.6;65.0
77803;DHT22;66993;48.256;16.422;2023-07-30T04:25:17;22.6;64.0
77803;DHT22;66993;48.256;16.422;2023-07-30T04:30:16;22.7;65.0
77803;DHT22;66993;48.256;16.422;2023-07-30T04:35:16;22.7;65.0
77803;DHT22;66993;48.256;16.422;2023-07-30T04:40:17;22.7;65.0
77803;DHT22;66993;48.256;16.422;2023-07-30T04:45:16;22.7;65.0
77803;DHT22;66993;48.256;16.422;2023-07-30T04:50:16;22.8;65.0
77803;DHT22;66993;48.256;16.422;2023-07-30T04:55:16;22.8;65.0
77803;DHT22;66993;48.256;16.422;2023-07-30T05:00:16;22.8;65.0
77803;DHT22;66993;48.256;16.422;2023-07-30T05:05:16;22.9;65.0
77803;DHT22;66993;48.256;16.422;2023-07-30T05:10:17;22.9;65.0
77803;DHT22;66993;48.256;16.422;2023-07-30T05:15:16;22.9;66.0
77803;DHT22;66993;48.256;16.422;2023-07-30T05:20:16;23.0;66.0
77803;DHT22;66993;48.256;16.422;2023-07-30T05:25:17;23.1;65.0
77803;DHT22;66993;48.256;16.422;2023-07-30T05:30:16;23.1;64.0
77803;DHT22;66993;48.256;16.422;2023-07-30T05:35:16;23.1;64.0
77803;DHT22;66993;48.256;16.422;2023-07-30T05:40:16;23.2;64.0
77803;DHT22;66993;48.256;16.422;2023-07-30T05:45:16;23.2;64.0
77803;DHT22;66993;48.256;16.422;2023-07-30T05:50:16;23.2;64.0
77803;DHT22;66993;48.256;16.422;2023-07-30T05:55:16;23.3;64.0
77803;DHT22;66993;48.256;16.422;2023-07-30T06:00:16;23.2;64.0
77803;DHT22;66993;48.256;16.422;2023-07-30T06:05:16;23.3;64.0
77803;DHT22;66993;48.256;16.422;2023-07-30T06:10:16;23.3;64.0
77803;DHT22;66993;48.256;16.422;2023-07-30T06:15:16;23.4;64.0
77803;DHT22;66993;48.256;16.422;2023-07-30T06:20:16;23.5;63.0
77803;DHT22;66993;48.256;16.422;2023-07-30T06:25:16;23.4;63.0
77803;DHT22;66993;48.256;16.422;2023-07-30T06:30:16;23.4;63.0
77803;DHT22;66993;48.256;16.422;2023-07-30T06:35:16;23.2;63.0
77803;DHT22;66993;48.256;16.422;2023-07-30T06:40:16;23.1;63.0
77803;DHT22;66993;48.256;16.422;2023-07-30T06:45:16;22.8;63.0
77803;DHT22;66993;48.256;16.422;2023-07-30T06:50:16;22.8;63.0
77803;DHT22;66993;48.256;16.422;2023-07-30T06:55:16;22.4;64.0
77803;DHT22;66993;48.256;16.422;2023-07-30T07:00:16;22.3;64.0
77803;DHT22;66993;48.256;16.422;2023-07-30T07:05:16;22.3;64.0
77803;DHT22;66993;48.256;16.422;2023-07-30T07:10:16;22.1;65.0
77803;DHT22;66993;48.256;16.422;2023-07-30T07:15:16;21.9;66.0
77803;DHT22;66993;48.256;16.422;2023-07-30T07:20:16;21.8;67.0
77803;DHT22;66993;48.256;16.422;2023-07-30T07:25:16;21.6;67.0
77803;DHT22;66993;48.256;16.422;2023-07-30T07:30:16;21.2;69.0
77803;DHT22;66993;48.256;16.422;2023-07-30T07:35:18;20.9;70.0
77803;DHT22;66993;48.256;16.422;2023-07-30T07:40:17;20.9;71.0
77803;DHT22;66993;48.256;16.422;2023-07-30T07:45:16;20.7;73.0
77803;DHT22;66993;48.256;16.422;2023-07-30T07:50:16;20.6;75.0
77803;DHT22;66993;48.256;16.422;2023-07-30T07:55:16;20.5;76.0
77803;DHT22;66993;48.256;16.422;2023-07-30T08:00:17;20.8;76.0
77803;DHT22;66993;48.256;16.422;2023-07-30T08:05:16;21.1;76.0
77803;DHT22;66993;48.256;16.422;2023-07-30T08:10:17;21.6;76.0
77803;DHT22;66993;48.256;16.422;2023-07-30T08:15:16;21.7;74.0
77803;DHT22;66993;48.256;16.422;2023-07-30T08:20:16;21.8;73.0
77803;DHT22;66993;48.256;16.422;2023-07-30T08:25:16;21.9;72.0
77803;DHT22;66993;48.256;16.422;2023-07-30T08:30:16;21.9;72.0
77803;DHT22;66993;48.256;16.422;2023-07-30T08:35:16;21.7;72.0
77803;DHT22;66993;48.256;16.422;2023-07-30T08:40:16;21.8;72.0
77803;DHT22;66993;48.256;16.422;2023-07-30T08:45:16;22.2;72.0
77803;DHT22;66993;48.256;16.422;2023-07-30T08:50:16;22.2;71.0
77803;DHT22;66993;48.256;16.422;2023-07-30T08:55:16;22.1;71.0
77803;DHT22;66993;48.256;16.422;2023-07-30T09:00:17;22.3;71.0
77803;DHT22;66993;48.256;16.422;2023-07-30T09:05:16;22.8;70.0
77803;DHT22;66993;48.256;16.422;2023-07-30T09:10:16;23.3;70.0
77803;DHT22;66993;48.256;16.422;2023-07-30T09:15:16;23.4;69.0
77803;DHT22;66993;48.256;16.422;2023-07-30T09:20:16;24.4;68.0
77803;DHT22;66993;48.256;16.422;2023-07-30T09:25:17;24.4;62.0
77803;DHT22;66993;48.256;16.422;2023-07-30T09:30:21;24.4;57.0
77803;DHT22;66993;48.256;16.422;2023-07-30T09:35:16;24.9;55.0
77803;DHT22;66993;48.256;16.422;2023-07-30T09:40:16;24.6;53.0
77803;DHT22;66993;48.256;16.422;2023-07-30T09:45:17;24.6;53.0
77803;DHT22;66993;48.256;16.422;2023-07-30T09:50:17;25.6;52.0
77803;DHT22;66993;48.256;16.422;2023-07-30T09:55:16;25.6;51.0
77803;DHT22;66993;48.256;16.422;2023-07-30T10:00:16;25.5;50.0
77803;DHT22;66993;48.256;16.422;2023-07-30T10:05:17;25.5;53.0
77803;DHT22;66993;48.256;16.422;2023-07-30T10:10:16;26.0;52.0
77803;DHT22;66993;48.256;16.422;2023-07-30T10:15:18;26.0;53.0
77803;DHT22;66993;48.256;16.422;2023-07-30T10:20:17;25.0;53.0
77803;DHT22;66993;48.256;16.422;2023-07-30T10:25:16;25.1;54.0
77803;DHT22;66993;48.256;16.422;2023-07-30T10:30:17;24.6;56.0
77803;DHT22;66993;48.256;16.422;2023-07-30T10:35:34;24.6;58.0
77803;DHT22;66993;48.256;16.422;2023-07-30T10:40:16;23.7;60.0
77803;DHT22;66993;48.256;16.422;2023-07-30T10:45:16;22.2;70.0
77803;DHT22;66993;48.256;16.422;2023-07-30T10:50:16;21.2;77.0
77803;DHT22;66993;48.256;16.422;2023-07-30T10:55:17;20.7;80.0
77803;DHT22;66993;48.256;16.422;2023-07-30T11:00:16;21.0;84.0
77803;DHT22;66993;48.256;16.422;2023-07-30T11:05:16;21.3;87.0
77803;DHT22;66993;48.256;16.422;2023-07-30T11:10:16;22.3;89.0
77803;DHT22;66993;48.256;16.422;2023-07-30T11:15:16;22.8;90.0
77803;DHT22;66993;48.256;16.422;2023-07-30T11:20:22;22.8;90.0
77803;DHT22;66993;48.256;16.422;2023-07-30T11:25:17;23.8;90.0
77803;DHT22;66993;48.256;16.422;2023-07-30T11:30:17;24.1;88.0
77803;DHT22;66993;48.256;16.422;2023-07-30T11:35:16;23.8;84.0
77803;DHT22;66993;48.256;16.422;2023-07-30T11:40:17;24.3;80.0
77803;DHT22;66993;48.256;16.422;2023-07-30T11:45:17;24.8;78.0
77803;DHT22;66993;48.256;16.422;2023-07-30T11:50:16;24.8;73.0
77803;DHT22;66993;48.256;16.422;2023-07-30T11:55:16;21.8;74.0
77803;DHT22;66993;48.256;16.422;2023-07-30T12:00:19;20.8;76.0
77803;DHT22;66993;48.256;16.422;2023-07-30T12:05:16;20.5;82.0
77803;DHT22;66993;48.256;16.422;2023-07-30T12:10:16;20.8;86.0
77803;DHT22;66993;48.256;16.422;2023-07-30T12:15:16;21.3;88.0
77803;DHT22;66993;48.256;16.422;2023-07-30T12:20:16;21.7;89.0
77803;DHT22;66993;48.256;16.422;2023-07-30T12:25:16;22.6;91.0
77803;DHT22;66993;48.256;16.422;2023-07-30T12:30:16;23.1;91.0
77803;DHT22;66993;48.256;16.422;2023-07-30T12:35:16;24.1;93.0
77803;DHT22;66993;48.256;16.422;2023-07-30T12:40:16;23.6;93.0
77803;DHT22;66993;48.256;16.422;2023-07-30T12:45:16;23.6;93.0
77803;DHT22;66993;48.256;16.422;2023-07-30T12:50:16;23.7;92.0
77803;DHT22;66993;48.256;16.422;2023-07-30T12:55:16;23.9;92.0
77803;DHT22;66993;48.256;16.422;2023-07-30T13:00:16;24.4;93.0
77803;DHT22;66993;48.256;16.422;2023-07-30T13:05:16;26.4;93.0
77803;DHT22;66993;48.256;16.422;2023-07-30T13:10:16;25.9;94.0
77803;DHT22;66993;48.256;16.422;2023-07-30T13:15:16;26.9;92.0
77803;DHT22;66993;48.256;16.422;2023-07-30T13:20:16;27.4;88.0
77803;DHT22;66993;48.256;16.422;2023-07-30T13:25:16;27.5;82.0
77803;DHT22;66993;48.256;16.422;2023-07-30T13:30:16;29.0;77.0
77803;DHT22;66993;48.256;16.422;2023-07-30T13:35:16;30.0;75.0
77803;DHT22;66993;48.256;16.422;2023-07-30T13:40:16;29.5;73.0
77803;DHT22;66993;48.256;16.422;2023-07-30T13:45:16;27.5;71.0
77803;DHT22;66993;48.256;16.422;2023-07-30T13:50:16;27.5;70.0
77803;DHT22;66993;48.256;16.422;2023-07-30T13:55:16;26.0;70.0
77803;DHT22;66993;48.256;16.422;2023-07-30T14:00:16;26.5;71.0
77803;DHT22;66993;48.256;16.422;2023-07-30T14:05:17;26.5;71.0
77803;DHT22;66993;48.256;16.422;2023-07-30T14:10:16;26.0;72.0
77803;DHT22;66993;48.256;16.422;2023-07-30T14:15:16;25.8;73.0
77803;DHT22;66993;48.256;16.422;2023-07-30T14:20:16;25.3;74.0
77803;DHT22;66993;48.256;16.422;2023-07-30T14:25:16;24.9;74.0
77803;DHT22;66993;48.256;16.422;2023-07-30T14:30:16;25.2;73.0
77803;DHT22;66993;48.256;16.422;2023-07-30T14:35:16;25.3;74.0
77803;DHT22;66993;48.256;16.422;2023-07-30T14:40:16;25.2;75.0
77803;DHT22;66993;48.256;16.422;2023-07-30T14:45:16;24.7;75.0
77803;DHT22;66993;48.256;16.422;2023-07-30T14:50:16;24.5;75.0
77803;DHT22;66993;48.256;16.422;2023-07-30T14:55:16;23.5;75.0
77803;DHT22;66993;48.256;16.422;2023-07-30T15:00:16;23.0;76.0
77803;DHT22;66993;48.256;16.422;2023-07-30T15:05:16;22.2;77.0
77803;DHT22;66993;48.256;16.422;2023-07-30T15:10:16;21.7;82.0
77803;DHT22;66993;48.256;16.422;2023-07-30T15:15:16;21.7;87.0
77803;DHT22;66993;48.256;16.422;2023-07-30T15:20:16;21.5;90.0
77803;DHT22;66993;48.256;16.422;2023-07-30T15:25:16;21.6;91.0
77803;DHT22;66993;48.256;16.422;2023-07-30T15:30:16;21.1;92.0
77803;DHT22;66993;48.256;16.422;2023-07-30T15:35:16;21.1;92.0
77803;DHT22;66993;48.256;16.422;2023-07-30T15:40:16;20.9;92.0
77803;DHT22;66993;48.256;16.422;2023-07-30T15:45:16;20.8;93.0
77803;DHT22;66993;48.256;16.422;2023-07-30T15:50:16;20.8;94.0
77803;DHT22;66993;48.256;16.422;2023-07-30T15:55:17;20.7;94.0
77803;DHT22;66993;48.256;16.422;2023-07-30T16:00:16;20.4;95.0
77803;DHT22;66993;48.256;16.422;2023-07-30T16:05:16;20.6;96.0
77803;DHT22;66993;48.256;16.422;2023-07-30T16:10:16;20.8;96.0
77803;DHT22;66993;48.256;16.422;2023-07-30T16:15:16;20.7;96.0
77803;DHT22;66993;48.256;16.422;2023-07-30T16:20:16;20.8;96.0
77803;DHT22;66993;48.256;16.422;2023-07-30T16:25:17;20.6;96.0
77803;DHT22;66993;48.256;16.422;2023-07-30T16:30:16;20.5;96.0
77803;DHT22;66993;48.256;16.422;2023-07-30T16:35:16;20.7;96.0
77803;DHT22;66993;48.256;16.422;2023-07-30T16:40:16;20.9;97.0
77803;DHT22;66993;48.256;16.422;2023-07-30T16:45:16;21.2;97.0
77803;DHT22;66993;48.256;16.422;2023-07-30T16:50:16;21.1;97.0
77803;DHT22;66993;48.256;16.422;2023-07-30T16:55:17;21.2;97.0
77803;DHT22;66993;48.256;16.422;2023-07-30T17:00:16;22.2;97.0
77803;DHT22;66993;48.256;16.422;2023-07-30T17:05:16;22.7;97.0
77803;DHT22;66993;48.256;16.422;2023-07-30T17:10:16;22.8;96.0
77803;DHT22;66993;48.256;16.422;2023-07-30T17:15:16;23.3;96.0
77803;DHT22;66993;48.256;16.422;2023-07-30T17:20:16;23.4;97.0
77803;DHT22;66993;48.256;16.422;2023-07-30T17:25:16;23.4;97.0
77803;DHT22;66993;48.256;16.422;2023-07-30T17:30:16;23.4;97.0
77803;DHT22;66993;48.256;16.422;2023-07-30T17:35:16;23.4;97.0
77803;DHT22;66993;48.256;16.422;2023-07-30T17:40:17;23.4;97.0
77803;DHT22;66993;48.256;16.422;2023-07-30T17:45:16;22.9;97.0
77803;DHT22;66993;48.256;16.422;2023-07-30T17:50:16;22.9;96.0
77803;DHT22;66993;48.256;16.422;2023-07-30T17:55:16;22.7;97.0
77803;DHT22;66993;48.256;16.422;2023-07-30T18:00:16;22.6;97.0
77803;DHT22;66993;48.256;16.422;2023-07-30T18:05:16;22.1;97.0
77803;DHT22;66993;48.256;16.422;2023-07-30T18:10:16;21.8;97.0
77803;DHT22;66993;48.256;16.422;2023-07-30T18:15:16;21.4;97.0
77803;DHT22;66993;48.256;16.422;2023-07-30T18:20:16;21.2;97.0
77803;DHT22;66993;48.256;16.422;2023-07-30T18:25:16;21.1;96.0
77803;DHT22;66993;48.256;16.422;2023-07-30T18:30:16;20.8;96.0
77803;DHT22;66993;48.256;16.422;2023-07-30T18:35:16;20.9;96.0
77803;DHT22;66993;48.256;16.422;2023-07-30T18:40:17;20.8;96.0
77803;DHT22;66993;48.256;16.422;2023-07-30T18:45:16;21.0;95.0
77803;DHT22;66993;48.256;16.422;2023-07-30T18:50:16;20.9;93.0
77803;DHT22;66993;48.256;16.422;2023-07-30T18:55:16;21.0;91.0
77803;DHT22;66993;48.256;16.422;2023-07-30T19:00:16;20.9;89.0
77803;DHT22;66993;48.256;16.422;2023-07-30T19:05:16;20.8;87.0
77803;DHT22;66993;48.256;16.422;2023-07-30T19:10:17;20.9;86.0
77803;DHT22;66993;48.256;16.422;2023-07-30T19:15:16;20.9;85.0
77803;DHT22;66993;48.256;16.422;2023-07-30T19:20:16;21.0;85.0
77803;DHT22;66993;48.256;16.422;2023-07-30T19:25:16;21.2;84.0
77803;DHT22;66993;48.256;16.422;2023-07-30T19:30:16;21.2;83.0
77803;DHT22;66993;48.256;16.422;2023-07-30T19:35:16;21.3;82.0
77803;DHT22;66993;48.256;16.422;2023-07-30T19:40:16;21.1;82.0
77803;DHT22;66993;48.256;16.422;2023-07-30T19:45:16;21.0;84.0
77803;DHT22;66993;48.256;16.422;2023-07-30T19:50:17;21.0;85.0
77803;DHT22;66993;48.256;16.422;2023-07-30T19:55:17;20.7;85.0
77803;DHT22;66993;48.256;16.422;2023-07-30T20:00:16;20.7;84.0
77803;DHT22;66993;48.256;16.422;2023-07-30T20:05:16;20.7;84.0
77803;DHT22;66993;48.256;16.422;2023-07-30T20:10:16;20.5;85.0
77803;DHT22;66993;48.256;16.422;2023-07-30T20:15:16;20.2;85.0
77803;DHT22;66993;48.256;16.422;2023-07-30T20:20:17;20.2;86.0
77803;DHT22;66993;48.256;16.422;2023-07-30T20:25:16;20.0;86.0
77803;DHT22;66993;48.256;16.422;2023-07-30T20:30:16;20.2;86.0
77803;DHT22;66993;48.256;16.422;2023-07-30T20:35:16;20.3;87.0
77803;DHT22;66993;48.256;16.422;2023-07-30T20:40:17;20.3;87.0
77803;DHT22;66993;48.256;16.422;2023-07-30T20:45:16;20.2;87.0
77803;DHT22;66993;48.256;16.422;2023-07-30T20:50:17;20.0;87.0
77803;DHT22;66993;48.256;16.422;2023-07-30T20:55:17;20.0;87.0
77803;DHT22;66993;48.256;16.422;2023-07-30T21:00:16;20.2;88.0
77803;DHT22;66993;48.256;16.422;2023-07-30T21:05:16;20.2;88.0
77803;DHT22;66993;48.256;16.422;2023-07-30T21:10:16;20.1;88.0
77803;DHT22;66993;48.256;16.422;2023-07-30T21:15:16;20.2;88.0
77803;DHT22;66993;48.256;16.422;2023-07-30T21:20:16;20.5;88.0
77803;DHT22;66993;48.256;16.422;2023-07-30T21:25:16;20.5;86.0
77803;DHT22;66993;48.256;16.422;2023-07-30T21:30:16;20.5;85.0
77803;DHT22;66993;48.256;16.422;2023-07-30T21:35:16;20.1;85.0
77803;DHT22;66993;48.256;16.422;2023-07-30T21:40:16;20.0;85.0
77803;DHT22;66993;48.256;16.422;2023-07-30T21:45:16;19.9;85.0
77803;DHT22;66993;48.256;16.422;2023-07-30T21:50:16;20.1;85.0
77803;DHT22;66993;48.256;16.422;2023-07-30T21:55:17;20.0;85.0
77803;DHT22;66993;48.256;16.422;2023-07-30T22:00:16;20.0;84.0
77803;DHT22;66993;48.256;16.422;2023-07-30T22:05:16;19.9;84.0
77803;DHT22;66993;48.256;16.422;2023-07-30T22:10:16;19.9;83.0
77803;DHT22;66993;48.256;16.422;2023-07-30T22:15:16;19.9;83.0
77803;DHT22;66993;48.256;16.422;2023-07-30T22:20:16;19.9;83.0
77803;DHT22;66993;48.256;16.422;2023-07-30T22:25:16;19.7;83.0
77803;DHT22;66993;48.256;16.422;2023-07-30T22:30:16;19.5;83.0
77803;DHT22;66993;48.256;16.422;2023-07-30T22:35:16;19.4;84.0
77803;DHT22;66993;48.256;16.422;2023-07-30T22:40:17;19.5;84.0
77803;DHT22;66993;48.256;16.422;2023-07-30T22:45:16;19.4;84.0
77803;DHT22;66993;48.256;16.422;2023-07-30T22:50:16;19.3;84.0
77803;DHT22;66993;48.256;16.422;2023-07-30T22:55:16;19.1;85.0
77803;DHT22;66993;48.256;16.422;2023-07-30T23:00:16;19.0;85.0
77803;DHT22;66993;48.256;16.422;2023-07-30T23:05:17;18.9;86.0
77803;DHT22;66993;48.256;16.422;2023-07-30T23:10:16;18.8;86.0
77803;DHT22;66993;48.256;16.422;2023-07-30T23:15:16;18.9;86.0
77803;DHT22;66993;48.256;16.422;2023-07-30T23:20:16;18.9;86.0
77803;DHT22;66993;48.256;16.422;2023-07-30T23:25:16;18.8;85.0
77803;DHT22;66993;48.256;16.422;2023-07-30T23:30:16;19.0;84.0
77803;DHT22;66993;48.256;16.422;2023-07-30T23:35:16;18.8;83.0
77803;DHT22;66993;48.256;16.422;2023-07-30T23:40:17;18.9;83.0
77803;DHT22;66993;48.256;16.422;2023-07-30T23:45:16;19.0;82.0
77803;DHT22;66993;48.256;16.422;2023-07-30T23:50:16;18.9;82.0
77803;DHT22;66993;48.256;16.422;2023-07-30T23:55:16;18.8;82.0
